createdAt,value
2018-05-10T00:01:13.617Z,99.90
2018-05-10T00:04:19.600Z,99.90
2018-05-10T00:07:26.662Z,99.90
2018-05-10T00:10:32.040Z,99.90
2018-05-10T00:13:37.616Z,99.90
2018-05-10T00:16:43.666Z,99.90
2018-05-10T00:19:50.106Z,99.90
2018-05-10T00:22:56.550Z,99.90
2018-05-10T00:26:03.456Z,99.90
2018-05-10T00:29:09.661Z,99.90
2018-05-10T00:32:15.667Z,99.90
2018-05-10T00:35:22.168Z,99.90
2018-05-10T00:38:28.425Z,99.90
2018-05-10T00:41:33.827Z,99.90
2018-05-10T00:44:39.314Z,99.90
2018-05-10T00:47:45.459Z,99.90
2018-05-10T00:50:50.784Z,99.90
2018-05-10T00:53:56.131Z,99.90
2018-05-10T00:57:02.139Z,99.90
2018-05-10T01:00:07.562Z,99.90
2018-05-10T01:03:13.009Z,99.90
2018-05-10T01:06:19.097Z,99.90
2018-05-10T01:09:24.361Z,99.90
2018-05-10T01:12:29.634Z,99.90
2018-05-10T01:15:34.995Z,99.90
2018-05-10T01:18:43.573Z,99.90
2018-05-10T01:21:50.131Z,99.90
2018-05-10T01:24:56.489Z,99.90
2018-05-10T01:28:02.707Z,99.90
2018-05-10T01:31:09.248Z,99.90
2018-05-10T01:34:14.681Z,99.90
2018-05-10T01:37:20.871Z,99.90
2018-05-10T01:40:27.582Z,99.90
2018-05-10T01:43:33.747Z,99.90
2018-05-10T01:46:40.112Z,99.90
2018-05-10T01:49:45.376Z,99.90
2018-05-10T01:52:50.847Z,99.90
2018-05-10T01:55:56.274Z,99.90
2018-05-10T01:59:02.460Z,99.90
2018-05-10T02:02:08.906Z,99.90
2018-05-10T02:05:15.493Z,99.90
2018-05-10T02:08:21.650Z,99.90
2018-05-10T02:11:26.793Z,99.90
2018-05-10T02:14:32.842Z,99.90
2018-05-10T02:17:39.058Z,99.90
2018-05-10T02:20:45.607Z,99.90
2018-05-10T02:23:51.000Z,99.90
2018-05-10T02:26:56.332Z,99.90
2018-05-10T02:30:02.606Z,99.90
2018-05-10T02:33:08.784Z,99.90
2018-05-10T02:36:14.815Z,99.90
2018-05-10T02:39:20.062Z,99.90
2018-05-10T02:42:26.179Z,99.90
2018-05-10T02:45:31.775Z,99.90
2018-05-10T02:48:39.821Z,99.90
2018-05-10T02:51:45.187Z,99.90
2018-05-10T02:54:51.483Z,99.90
2018-05-10T02:57:57.889Z,99.90
2018-05-10T03:01:04.251Z,99.90
2018-05-10T03:04:10.337Z,99.90
2018-05-10T03:07:16.100Z,99.90
2018-05-10T03:10:22.264Z,99.90
2018-05-10T03:13:28.404Z,99.90
2018-05-10T03:16:34.457Z,99.90
2018-05-10T03:19:47.697Z,99.90
2018-05-10T03:22:53.812Z,99.90
2018-05-10T03:25:59.027Z,99.90
2018-05-10T03:29:04.246Z,99.90
2018-05-10T03:32:10.520Z,99.90
2018-05-10T03:35:15.774Z,99.90
2018-05-10T03:38:22.573Z,99.90
2018-05-10T03:41:29.847Z,99.90
2018-05-10T03:44:37.523Z,99.90
2018-05-10T03:47:44.064Z,99.90
2018-05-10T03:50:50.628Z,99.90
2018-05-10T03:53:56.803Z,99.90
2018-05-10T03:57:03.121Z,99.90
2018-05-10T04:00:08.797Z,99.90
2018-05-10T04:07:20.356Z,99.90
2018-05-10T04:10:38.429Z,99.90
2018-05-10T04:13:44.687Z,99.90
2018-05-10T04:16:50.633Z,99.90
2018-05-10T04:19:56.694Z,99.90
2018-05-10T04:23:02.864Z,99.90
2018-05-10T04:26:08.854Z,99.90
2018-05-10T04:29:15.024Z,99.90
2018-05-10T04:32:21.158Z,99.90
2018-05-10T04:35:26.960Z,99.90
2018-05-10T04:38:33.100Z,99.90
2018-05-10T04:41:39.285Z,99.90
2018-05-10T04:44:45.474Z,99.90
2018-05-10T04:47:51.729Z,99.90
2018-05-10T04:50:58.816Z,99.90
2018-05-10T04:54:04.627Z,99.90
2018-05-10T04:57:10.592Z,99.90
2018-05-10T05:00:16.519Z,99.90
2018-05-10T05:03:22.591Z,99.90
2018-05-10T05:06:29.885Z,99.90
2018-05-10T05:09:35.876Z,99.90
2018-05-10T05:12:42.024Z,99.90
2018-05-10T05:15:50.109Z,99.90
2018-05-10T05:18:56.863Z,99.90
2018-05-10T05:22:02.817Z,99.90
2018-05-10T05:25:09.720Z,99.90
2018-05-10T05:28:15.842Z,99.90
2018-05-10T05:31:21.675Z,99.90
2018-05-10T05:34:27.929Z,99.90
2018-05-10T05:37:33.912Z,99.90
2018-05-10T05:40:39.780Z,99.90
2018-05-10T05:43:46.012Z,99.90
2018-05-10T05:46:52.144Z,99.90
2018-05-10T05:49:58.707Z,99.90
2018-05-10T05:53:04.786Z,99.90
2018-05-10T05:56:10.913Z,99.90
2018-05-10T05:59:16.760Z,99.90
2018-05-10T06:02:23.659Z,99.90
2018-05-10T06:05:32.040Z,99.90
2018-05-10T06:08:38.999Z,99.90
2018-05-10T06:11:44.821Z,99.90
2018-05-10T06:14:51.592Z,99.90
2018-05-10T06:17:59.312Z,99.90
2018-05-10T06:21:06.009Z,99.90
2018-05-10T06:24:12.049Z,99.90
2018-05-10T06:27:19.131Z,99.90
2018-05-10T06:30:26.059Z,99.90
2018-05-10T06:33:32.327Z,99.90
2018-05-10T06:36:38.971Z,99.90
2018-05-10T06:39:45.284Z,99.90
2018-05-10T06:42:51.151Z,99.90
2018-05-10T06:45:59.229Z,99.90
2018-05-10T06:49:06.593Z,99.90
2018-05-10T06:52:13.459Z,99.90
2018-05-10T06:55:19.643Z,99.90
2018-05-10T06:58:27.065Z,99.90
2018-05-10T07:01:35.195Z,99.90
2018-05-10T07:04:41.194Z,99.90
2018-05-10T07:07:48.220Z,99.90
2018-05-10T07:10:55.224Z,99.90
2018-05-10T07:14:01.333Z,99.90
2018-05-10T07:17:07.643Z,99.90
2018-05-10T07:20:13.867Z,99.90
2018-05-10T07:23:20.945Z,99.90
2018-05-10T07:26:26.793Z,99.90
2018-05-10T07:29:32.870Z,99.90
2018-05-10T07:32:38.768Z,99.90
2018-05-10T07:35:45.910Z,99.90
2018-05-10T07:38:52.014Z,99.90
2018-05-10T07:41:59.016Z,99.90
2018-05-10T07:45:04.850Z,99.90
2018-05-10T07:48:10.893Z,99.90
2018-05-10T07:51:17.889Z,99.90
2018-05-10T07:54:24.727Z,99.90
2018-05-10T07:57:30.894Z,99.90
2018-05-10T08:00:37.080Z,99.90
2018-05-10T08:03:43.344Z,99.90
2018-05-10T08:06:49.207Z,99.90
2018-05-10T08:09:55.213Z,99.90
2018-05-10T08:13:01.101Z,99.90
2018-05-10T08:16:06.565Z,99.90
2018-05-10T08:19:12.725Z,99.90
2018-05-10T08:22:18.865Z,99.90
2018-05-10T08:25:24.934Z,99.90
2018-05-10T08:28:31.187Z,99.90
2018-05-10T08:31:37.110Z,99.90
2018-05-10T08:34:43.207Z,99.90
2018-05-10T08:37:49.034Z,99.90
2018-05-10T08:40:54.428Z,99.90
2018-05-10T08:44:00.462Z,99.90
2018-05-10T08:47:06.803Z,99.90
2018-05-10T08:50:14.036Z,99.90
2018-05-10T08:53:20.056Z,99.90
2018-05-10T08:56:26.369Z,99.90
2018-05-10T08:59:32.416Z,99.90
2018-05-10T09:02:39.167Z,99.90
2018-05-10T09:05:46.068Z,99.90
2018-05-10T09:08:52.129Z,99.90
2018-05-10T09:11:58.284Z,99.90
2018-05-10T09:15:04.164Z,99.90
2018-05-10T09:18:10.581Z,99.90
2018-05-10T09:21:17.407Z,99.90
2018-05-10T09:24:23.665Z,99.90
2018-05-10T09:27:29.910Z,99.90
2018-05-10T09:30:35.259Z,99.90
2018-05-10T09:33:41.211Z,99.90
2018-05-10T09:36:47.183Z,99.90
2018-05-10T09:39:53.531Z,99.90
2018-05-10T09:42:59.795Z,99.90
2018-05-10T09:46:05.773Z,99.90
2018-05-10T09:49:11.907Z,99.90
2018-05-10T09:52:17.722Z,99.90
2018-05-10T09:55:23.876Z,99.90
2018-05-10T09:58:30.248Z,99.90
2018-05-10T10:01:36.379Z,99.90
2018-05-10T10:04:42.736Z,99.90
2018-05-10T10:07:48.893Z,99.90
2018-05-10T10:13:35.922Z,99.90
2018-05-10T10:16:43.467Z,99.90
2018-05-10T10:19:51.294Z,99.90
2018-05-10T10:22:58.042Z,99.90
2018-05-10T10:26:07.843Z,99.90
2018-05-10T10:29:18.434Z,99.90
2018-05-10T10:32:26.002Z,99.90
2018-05-10T10:35:36.662Z,99.90
2018-05-10T10:38:44.421Z,99.90
2018-05-10T10:41:55.402Z,99.90
2018-05-10T10:45:03.362Z,99.90
2018-05-10T10:48:10.104Z,99.90
2018-05-10T10:51:18.529Z,99.90
2018-05-10T10:54:25.575Z,99.90
2018-05-10T10:57:33.322Z,99.90
2018-05-10T11:00:41.876Z,99.90
2018-05-10T11:03:49.017Z,99.90
2018-05-10T11:06:56.608Z,99.90
2018-05-10T11:10:02.985Z,99.90
2018-05-10T11:13:10.755Z,99.90
2018-05-10T11:16:17.620Z,99.90
2018-05-10T11:19:23.673Z,99.90
2018-05-10T11:22:31.298Z,99.90
2018-05-10T11:25:40.207Z,99.90
2018-05-10T11:28:47.169Z,99.90
2018-05-10T11:31:55.501Z,99.90
2018-05-10T11:35:07.441Z,99.90
2018-05-10T11:38:15.965Z,99.90
2018-05-10T11:41:22.297Z,99.90
2018-05-10T11:44:34.113Z,99.90
2018-05-10T11:47:47.257Z,99.90
2018-05-10T11:50:57.752Z,99.90
2018-05-10T11:54:03.872Z,99.90
2018-05-10T11:57:10.831Z,99.90
2018-05-10T12:00:17.681Z,99.90
2018-05-10T12:03:25.780Z,99.90
2018-05-10T12:06:34.821Z,99.90
2018-05-10T12:09:41.864Z,99.90
2018-05-10T12:12:48.533Z,99.90
2018-05-10T12:15:59.205Z,99.50
2018-05-10T12:19:11.789Z,98.20
2018-05-10T12:22:21.295Z,99.20
2018-05-10T12:25:28.733Z,99.90
2018-05-10T12:28:37.349Z,99.90
2018-05-10T12:31:44.786Z,99.90
2018-05-10T12:34:58.807Z,99.90
2018-05-10T12:38:08.442Z,99.90
2018-05-10T12:41:22.062Z,99.90
2018-05-10T12:44:28.688Z,99.90
2018-05-10T12:47:37.613Z,98.80
2018-05-10T12:50:43.689Z,98.80
2018-05-10T12:53:50.510Z,95.70
2018-05-10T12:56:58.733Z,95.70
2018-05-10T13:00:05.978Z,96.00
2018-05-10T13:03:13.526Z,96.50
2018-05-10T13:06:21.483Z,97.60
2018-05-10T13:09:28.017Z,94.30
2018-05-10T13:12:36.556Z,96.20
2018-05-10T13:15:46.298Z,96.00
2018-05-10T13:18:53.681Z,95.10
2018-05-10T13:22:09.750Z,96.10
2018-05-10T13:25:16.300Z,96.10
2018-05-10T13:28:26.346Z,96.70
2018-05-10T13:31:33.725Z,96.10
2018-05-10T13:34:41.250Z,95.90
2018-05-10T13:37:49.761Z,95.40
2018-05-10T13:40:57.549Z,95.80
2018-05-10T13:44:04.771Z,93.90
2018-05-10T13:47:11.439Z,92.70
2018-05-10T13:50:17.773Z,95.70
2018-05-10T13:53:26.870Z,97.00
2018-05-10T13:56:34.927Z,99.30
2018-05-10T13:59:43.287Z,99.30
2018-05-10T14:02:49.311Z,99.90
2018-05-10T14:05:56.269Z,99.90
2018-05-10T14:09:03.840Z,99.90
2018-05-10T14:12:10.872Z,99.90
2018-05-10T14:15:17.561Z,99.90
2018-05-10T14:18:26.601Z,99.90
2018-05-10T14:21:35.678Z,99.90
2018-05-10T14:24:41.969Z,99.90
2018-05-10T14:27:56.751Z,99.90
2018-05-10T14:31:08.020Z,99.90
2018-05-10T14:34:19.805Z,99.90
2018-05-10T14:37:28.063Z,99.90
2018-05-10T14:40:35.763Z,99.90
2018-05-10T14:43:48.332Z,99.90
2018-05-10T14:47:02.068Z,99.90
2018-05-10T14:50:08.647Z,99.90
2018-05-10T14:53:17.040Z,99.90
2018-05-10T14:56:28.367Z,99.90
2018-05-10T14:59:38.496Z,99.90
2018-05-10T15:02:46.685Z,99.90
2018-05-10T15:05:52.947Z,99.90
2018-05-10T15:09:02.031Z,99.90
2018-05-10T15:12:22.037Z,99.90
2018-05-10T15:15:44.363Z,99.90
2018-05-10T15:18:50.870Z,99.90
2018-05-10T15:22:03.109Z,99.90
2018-05-10T15:25:15.099Z,99.90
2018-05-10T15:28:24.930Z,99.90
2018-05-10T15:31:36.018Z,99.90
2018-05-10T15:34:44.543Z,99.90
2018-05-10T15:38:10.818Z,99.90
2018-05-10T15:41:25.398Z,99.90
2018-05-10T15:44:34.262Z,99.90
2018-05-10T15:47:44.651Z,99.90
2018-05-10T15:50:51.710Z,99.90
2018-05-10T15:54:00.825Z,99.90
2018-05-10T15:57:11.598Z,99.90
2018-05-10T16:00:18.409Z,99.90
2018-05-10T16:03:26.548Z,99.90
2018-05-10T16:06:33.705Z,99.90
2018-05-10T16:09:40.879Z,99.90
2018-05-10T16:12:48.222Z,99.90
2018-05-10T16:15:55.619Z,99.90
2018-05-10T16:19:04.108Z,99.90
2018-05-10T16:22:10.250Z,99.90
2018-05-10T16:25:16.251Z,99.90
2018-05-10T16:28:23.305Z,99.90
2018-05-10T16:31:28.992Z,99.90
2018-05-10T16:34:34.803Z,99.90
2018-05-10T16:37:40.838Z,99.90
2018-05-10T16:40:46.761Z,99.90
2018-05-10T16:43:53.677Z,99.90
2018-05-10T16:46:59.652Z,99.90
2018-05-10T16:50:07.333Z,99.90
2018-05-10T16:53:14.495Z,99.90
2018-05-10T16:56:32.715Z,99.90
2018-05-10T16:59:39.177Z,99.90
2018-05-10T17:02:46.756Z,99.90
2018-05-10T17:05:53.170Z,99.90
2018-05-10T17:08:59.121Z,99.90
2018-05-10T17:12:05.127Z,99.90
2018-05-10T17:15:11.170Z,99.90
2018-05-10T17:18:16.940Z,99.90
2018-05-10T17:21:23.735Z,99.90
2018-05-10T17:24:29.711Z,99.90
2018-05-10T17:27:35.649Z,99.90
2018-05-10T17:30:42.788Z,99.90
2018-05-10T17:33:48.950Z,99.90
2018-05-10T17:36:54.859Z,99.90
2018-05-10T17:40:00.920Z,99.90
2018-05-10T17:43:07.291Z,99.90
2018-05-10T17:46:13.235Z,99.90
2018-05-10T17:49:19.228Z,99.90
2018-05-10T17:52:25.090Z,99.90
2018-05-10T17:55:31.288Z,99.90
2018-05-10T17:58:37.504Z,99.90
2018-05-10T18:01:43.514Z,99.90
2018-05-10T18:04:49.876Z,99.90
2018-05-10T18:07:55.940Z,99.90
2018-05-10T18:11:02.898Z,99.90
2018-05-10T18:14:09.723Z,99.90
2018-05-10T18:17:18.521Z,99.90
2018-05-10T18:20:25.363Z,99.90
2018-05-10T18:23:30.643Z,99.90
2018-05-10T18:26:36.555Z,99.90
2018-05-10T18:29:42.749Z,99.90
2018-05-10T18:32:48.844Z,99.90
2018-05-10T18:35:54.935Z,99.90
2018-05-10T18:39:00.225Z,99.90
2018-05-10T18:42:06.562Z,99.90
2018-05-10T18:45:12.895Z,99.90
2018-05-10T18:48:19.278Z,99.90
2018-05-10T18:51:25.647Z,99.90
2018-05-10T18:54:31.700Z,99.90
2018-05-10T18:57:37.515Z,99.90
2018-05-10T19:00:43.348Z,99.90
2018-05-10T19:03:49.492Z,99.90
2018-05-10T19:06:55.373Z,99.90
2018-05-10T19:10:01.332Z,99.90
2018-05-10T19:13:08.616Z,99.90
2018-05-10T19:16:15.959Z,99.90
2018-05-10T19:19:22.785Z,99.90
2018-05-10T19:22:28.987Z,99.90
2018-05-10T19:25:35.538Z,99.90
2018-05-10T19:28:41.582Z,99.90
2018-05-10T19:31:47.995Z,99.90
2018-05-10T19:34:54.048Z,99.90
2018-05-10T19:38:01.258Z,99.90
2018-05-10T19:41:08.900Z,99.90
2018-05-10T19:44:15.177Z,99.90
2018-05-10T19:47:20.284Z,99.90
2018-05-10T19:50:27.733Z,99.90
2018-05-10T19:53:35.217Z,99.90
2018-05-10T19:56:41.337Z,99.90
2018-05-10T19:59:47.616Z,99.90
2018-05-10T20:02:53.642Z,99.90
2018-05-10T20:05:59.758Z,99.90
2018-05-10T20:09:05.788Z,99.90
2018-05-10T20:12:11.927Z,99.90
2018-05-10T20:15:18.098Z,99.90
2018-05-10T20:18:24.166Z,99.90
2018-05-10T20:21:30.338Z,99.90
2018-05-10T20:24:36.457Z,99.90
2018-05-10T20:27:42.645Z,99.90
2018-05-10T20:30:48.658Z,99.90
2018-05-10T20:33:54.714Z,99.90
2018-05-10T20:36:59.918Z,99.90
2018-05-10T20:40:05.782Z,99.90
2018-05-10T20:43:20.961Z,99.90
2018-05-10T20:46:26.964Z,99.90
2018-05-10T20:49:32.976Z,99.90
2018-05-10T20:52:39.096Z,99.90
2018-05-10T20:55:45.236Z,99.90
2018-05-10T20:58:51.488Z,99.90
2018-05-10T21:01:57.285Z,99.90
2018-05-10T21:05:03.194Z,99.90
2018-05-10T21:08:08.554Z,99.90
2018-05-10T21:11:14.540Z,99.90
2018-05-10T21:14:20.665Z,99.90
2018-05-10T21:17:26.795Z,99.90
2018-05-10T21:20:32.885Z,99.90
2018-05-10T21:23:38.822Z,99.90
2018-05-10T21:26:44.855Z,99.90
2018-05-10T21:29:51.122Z,99.90
2018-05-10T21:32:57.074Z,99.90
2018-05-10T21:36:04.264Z,99.90
2018-05-10T21:39:10.196Z,99.90
2018-05-10T21:42:16.346Z,99.90
2018-05-10T21:45:22.550Z,99.90
2018-05-10T21:48:31.783Z,99.90
2018-05-10T21:51:37.284Z,99.90
2018-05-10T21:54:44.010Z,99.90
2018-05-10T21:57:50.742Z,99.90
2018-05-10T22:00:56.513Z,99.90
2018-05-10T22:04:02.584Z,99.90
2018-05-10T22:07:10.940Z,99.90
2018-05-10T22:10:16.930Z,99.90
2018-05-10T22:13:23.030Z,99.90
2018-05-10T22:16:30.015Z,99.90
2018-05-10T22:19:37.230Z,99.90
2018-05-10T22:22:43.375Z,99.90
2018-05-10T22:25:49.460Z,99.90
2018-05-10T22:28:54.804Z,99.90
2018-05-10T22:32:01.025Z,99.90
2018-05-10T22:35:07.812Z,99.90
2018-05-10T22:38:13.836Z,99.90
2018-05-10T22:41:20.223Z,99.90
2018-05-10T22:44:25.684Z,99.90
2018-05-10T22:47:31.976Z,99.90
2018-05-10T22:50:38.874Z,99.90
2018-05-10T22:53:46.064Z,99.90
2018-05-10T22:56:53.439Z,99.90
2018-05-10T22:59:58.608Z,99.90
2018-05-10T23:03:04.671Z,99.90
2018-05-10T23:06:10.515Z,99.90
2018-05-10T23:09:15.858Z,99.90
2018-05-10T23:12:20.977Z,99.90
2018-05-10T23:15:27.001Z,99.90
2018-05-10T23:18:33.018Z,99.90
2018-05-10T23:21:39.226Z,99.90
2018-05-10T23:24:45.152Z,99.90
2018-05-10T23:27:52.404Z,99.90
2018-05-10T23:30:58.414Z,99.90
2018-05-10T23:34:04.467Z,99.90
2018-05-10T23:37:09.817Z,99.90
2018-05-10T23:40:16.841Z,99.90
2018-05-10T23:43:22.265Z,99.90
2018-05-10T23:46:28.237Z,99.90
2018-05-10T23:49:35.353Z,99.90
2018-05-10T23:52:40.837Z,99.90
2018-05-10T23:55:46.845Z,99.90
2018-05-10T23:58:52.906Z,99.90
